Time;durP1;ratioP1;P1;durP2;ratioP2;P2;SDS_P1;SDS_P2;PMS_P1;PMS_P2;Temp;Humidity;BMP_temperature;BMP_pressure;BME280_temperature;BME280_humidity;BME280_pressure;Samples;Min_cycle;Max_cycle;Signal;HPM_P1;HPM_P2
2022/11/13 00:01:10;;;;;;;51.20;32.67;;;;;;;11.62;69.62;102818.22;5010271;28;20032;-49
2022/11/13 00:03:36;;;;;;;48.92;30.27;;;;;;;11.62;69.37;102811.25;5010596;28;20045;-42
2022/11/13 00:06:01;;;;;;;48.88;30.55;;;;;;;11.61;69.63;102824.25;5010200;28;20064;-44
2022/11/13 00:08:27;;;;;;;49.60;30.35;;;;;;;11.58;69.70;102819.81;5010945;28;20030;-45
2022/11/13 00:11:17;;;;;;;48.45;30.08;;;;;;;11.59;69.49;102812.84;5010152;28;20028;-49
2022/11/13 00:13:42;;;;;;;46.08;29.92;;;;;;;11.61;69.17;102808.59;5014519;28;20398;-43
2022/11/13 00:16:11;;;;;;;47.92;29.50;;;;;;;11.59;69.10;102797.16;5014612;28;20337;-44
2022/11/13 00:18:37;;;;;;;48.80;30.35;;;;;;;11.53;69.28;102795.22;5019282;28;20451;-46
2022/11/13 00:21:13;;;;;;;47.85;29.98;;;;;;;11.50;69.75;102795.09;5020789;28;20025;-48
2022/11/13 00:23:39;;;;;;;43.22;28.08;;;;;;;11.52;69.88;102793.44;5018397;28;20061;-44
2022/11/13 00:26:15;;;;;;;46.75;28.25;;;;;;;11.51;69.69;102801.22;5014403;28;20060;-47
2022/11/13 00:28:42;;;;;;;39.97;26.60;;;;;;;11.52;69.43;102796.06;5013783;28;20036;-48
2022/11/13 00:31:09;;;;;;;44.78;27.05;;;;;;;11.53;69.74;102794.31;5013916;28;20118;-44
2022/11/13 00:33:34;;;;;;;39.42;25.67;;;;;;;11.51;69.65;102799.50;5014174;28;20037;-45
2022/11/13 00:36:09;;;;;;;43.67;26.90;;;;;;;11.53;69.57;102795.22;5014314;28;20113;-44
2022/11/13 00:38:35;;;;;;;40.00;25.13;;;;;;;11.51;69.44;102782.94;5014087;28;20022;-44
2022/11/13 00:41:00;;;;;;;40.08;25.15;;;;;;;11.54;69.86;102773.47;5013797;28;20066;-44
2022/11/13 00:43:26;;;;;;;40.13;24.58;;;;;;;11.61;70.53;102762.44;5014383;28;20061;-44
2022/11/13 00:45:52;;;;;;;42.05;25.80;;;;;;;11.68;70.42;102766.19;5014096;28;20025;-44
2022/11/13 00:48:18;;;;;;;39.15;25.10;;;;;;;11.70;69.87;102756.72;5014076;28;20036;-48
2022/11/13 00:50:43;;;;;;;38.90;24.33;;;;;;;11.67;69.75;102759.19;5013607;28;20100;-43
2022/11/13 00:53:09;;;;;;;34.53;22.65;;;;;;;11.67;69.44;102751.34;5013971;28;20065;-47
2022/11/13 00:55:34;;;;;;;40.95;24.27;;;;;;;11.64;70.10;102753.84;5013893;28;20033;-43
2022/11/13 00:57:59;;;;;;;38.42;22.65;;;;;;;11.73;70.06;102759.41;5014157;28;20175;-44
2022/11/13 01:00:25;;;;;;;37.40;22.95;;;;;;;11.72;70.05;102757.63;5013648;28;20040;-48
2022/11/13 01:02:50;;;;;;;33.97;21.70;;;;;;;11.78;70.11;102757.91;5013792;28;20057;-44
2022/11/13 01:05:16;;;;;;;36.65;22.65;;;;;;;11.71;69.95;102764.56;5013848;28;20040;-44
2022/11/13 01:07:41;;;;;;;35.50;21.80;;;;;;;11.74;69.49;102754.28;5014686;28;20386;-43
2022/11/13 01:10:07;;;;;;;35.70;22.73;;;;;;;11.67;69.79;102757.47;5013521;28;20018;-42
2022/11/13 01:12:32;;;;;;;34.30;21.80;;;;;;;11.66;69.84;102758.28;5014116;28;20029;-44
2022/11/13 01:14:58;;;;;;;35.20;22.55;;;;;;;11.63;69.94;102752.97;5015064;28;20085;-45
2022/11/13 01:17:24;;;;;;;34.58;21.83;;;;;;;11.70;69.43;102756.72;5014337;28;20095;-47
2022/11/13 01:19:49;;;;;;;36.60;22.20;;;;;;;11.68;69.32;102750.53;5014396;28;20030;-47
2022/11/13 01:22:14;;;;;;;33.75;22.45;;;;;;;11.65;68.85;102755.59;5015004;28;20042;-47
2022/11/13 01:24:40;;;;;;;35.60;22.52;;;;;;;11.61;69.18;102743.28;5016419;28;20033;-42
2022/11/13 01:27:05;;;;;;;35.00;23.02;;;;;;;11.52;69.62;102738.59;5014173;28;20042;-43
2022/11/13 01:29:32;;;;;;;35.35;21.27;;;;;;;11.45;69.21;102741.78;5016539;28;20030;-45
2022/11/13 01:31:57;;;;;;;34.92;23.13;;;;;;;11.37;69.35;102736.25;5016653;28;20017;-44
2022/11/13 01:34:23;;;;;;;35.92;22.35;;;;;;;11.31;69.57;102743.84;5016132;28;20156;-49
2022/11/13 01:36:48;;;;;;;37.17;24.00;;;;;;;11.28;69.74;102743.72;5017028;28;20068;-44
2022/11/13 01:39:14;;;;;;;39.03;24.95;;;;;;;11.15;69.90;102748.41;5014674;28;20026;-43
2022/11/13 01:41:39;;;;;;;34.80;22.60;;;;;;;11.18;69.56;102744.19;5016440;28;20033;-47
2022/11/13 01:44:09;;;;;;;33.05;21.65;;;;;;;11.13;69.64;102735.28;5016445;28;20026;-42
2022/11/13 01:46:44;;;;;;;35.28;22.60;;;;;;;11.10;69.18;102739.50;5016641;28;20026;-42
2022/11/13 01:49:09;;;;;;;33.55;21.33;;;;;;;11.18;68.95;102735.47;5016390;28;20030;-48
2022/11/13 01:51:39;;;;;;;38.38;22.75;;;;;;;11.07;69.45;102740.25;5016016;28;20033;-45
2022/11/13 01:54:16;;;;;;;35.60;22.42;;;;;;;11.05;69.79;102743.59;5015834;28;20029;-43
2022/11/13 01:56:42;;;;;;;35.00;21.75;;;;;;;11.05;69.56;102738.38;5015439;28;20026;-45
2022/11/13 01:59:17;;;;;;;34.97;22.10;;;;;;;11.05;69.58;102731.47;5013065;28;20029;-43
2022/11/13 02:01:43;;;;;;;35.90;22.38;;;;;;;11.01;69.34;102726.94;5012092;28;20026;-46
2022/11/13 02:04:08;;;;;;;35.97;22.02;;;;;;;10.94;69.46;102724.91;5012639;28;20029;-50
2022/11/13 02:06:56;;;;;;;38.28;22.63;;;;;;;10.87;69.56;102726.38;5012839;28;20569;-41
2022/11/13 02:09:25;;;;;;;32.90;21.10;;;;;;;10.91;68.78;102728.31;5012352;28;20025;-44
2022/11/13 02:11:51;;;;;;;35.75;23.17;;;;;;;10.84;69.39;102725.38;5012655;28;20101;-43
2022/11/13 02:14:19;;;;;;;33.60;21.00;;;;;;;10.84;68.96;102726.25;5013118;28;20022;-48
2022/11/13 02:16:46;;;;;;;33.78;21.73;;;;;;;10.77;69.37;102720.72;5013144;28;20120;-47
2022/11/13 02:19:22;;;;;;;31.30;20.50;;;;;;;10.75;69.39;102706.72;5014666;28;20030;-44
2022/11/13 02:21:54;;;;;;;33.42;21.77;;;;;;;10.66;69.42;102714.16;5023941;28;20048;-46
2022/11/13 02:24:28;;;;;;;34.13;21.60;;;;;;;10.64;70.05;102711.47;5024984;28;20125;-47
2022/11/13 02:26:57;;;;;;;33.45;20.75;;;;;;;10.72;69.09;102720.53;5021876;28;20041;-52
2022/11/13 02:29:23;;;;;;;32.60;20.30;;;;;;;10.72;69.11;102717.03;5015339;28;20040;-50
2022/11/13 02:31:48;;;;;;;29.50;19.67;;;;;;;10.67;68.94;102713.34;5014576;28;20021;-45
2022/11/13 02:34:13;;;;;;;29.17;19.70;;;;;;;10.64;68.98;102710.59;5014862;28;20029;-43
2022/11/13 02:36:38;;;;;;;29.80;18.92;;;;;;;10.62;68.60;102704.41;5014421;28;20030;-43
2022/11/13 02:39:09;;;;;;;29.73;19.40;;;;;;;10.56;69.07;102718.06;5015570;28;20037;-49
2022/11/13 02:41:34;;;;;;;30.63;19.25;;;;;;;10.47;69.58;102710.78;5014950;28;20474;-45
2022/11/13 02:44:00;;;;;;;27.30;18.60;;;;;;;10.47;69.03;102708.16;5014840;28;20028;-44
2022/11/13 02:46:25;;;;;;;31.15;19.27;;;;;;;10.48;69.11;102693.41;5014542;28;20058;-44
2022/11/13 02:48:50;;;;;;;27.25;17.80;;;;;;;10.48;68.69;102693.41;5014313;28;20524;-43
2022/11/13 02:51:15;;;;;;;26.75;17.75;;;;;;;10.45;68.54;102688.06;5013658;28;20029;-46
2022/11/13 02:53:41;;;;;;;27.20;17.02;;;;;;;10.38;69.22;102693.81;5012191;28;20108;-48
2022/11/13 02:56:06;;;;;;;26.90;17.67;;;;;;;10.41;68.86;102689.66;5011497;28;20079;-43
2022/11/13 02:58:32;;;;;;;26.88;17.88;;;;;;;10.26;69.70;102690.69;5011500;28;20104;-47
2022/11/13 03:00:59;;;;;;;26.35;17.80;;;;;;;10.32;69.56;102683.13;5012660;28;20088;-45
2022/11/13 03:03:24;;;;;;;27.23;18.40;;;;;;;10.28;69.35;102682.13;5014472;28;20386;-43
2022/11/13 03:05:50;;;;;;;27.80;17.77;;;;;;;10.23;69.41;102675.81;5011037;28;20120;-44
2022/11/13 03:08:16;;;;;;;28.77;18.50;;;;;;;10.24;70.08;102672.41;5010908;28;20029;-45
2022/11/13 03:10:41;;;;;;;26.90;17.10;;;;;;;10.27;69.76;102664.69;5010909;28;20128;-44
2022/11/13 03:13:06;;;;;;;29.10;18.02;;;;;;;10.29;70.13;102665.66;5010771;28;20033;-44
2022/11/13 03:15:33;;;;;;;27.25;17.52;;;;;;;10.35;70.20;102665.94;5010744;28;20018;-42
2022/11/13 03:18:02;;;;;;;29.35;17.90;;;;;;;10.40;70.52;102664.41;5010768;28;20026;-47
2022/11/13 03:20:27;;;;;;;26.88;16.35;;;;;;;10.56;70.09;102660.69;5010301;28;20032;-43
2022/11/13 03:22:53;;;;;;;25.83;16.35;;;;;;;10.66;70.40;102656.78;5010464;28;20496;-46
2022/11/13 03:25:18;;;;;;;28.70;16.17;;;;;;;10.71;70.53;102652.63;5033464;22;20052;-43
2022/11/13 03:27:43;;;;;;;24.42;15.45;;;;;;;10.79;70.42;102646.91;4993068;28;20029;-44
2022/11/13 03:30:10;;;;;;;26.20;15.85;;;;;;;10.81;70.52;102649.56;5010880;28;20125;-48
2022/11/13 03:32:35;;;;;;;24.83;15.25;;;;;;;10.91;70.13;102641.31;5010214;28;20477;-47
2022/11/13 03:35:00;;;;;;;26.65;15.63;;;;;;;10.94;70.58;102644.00;5010591;28;20422;-41
2022/11/13 03:37:26;;;;;;;25.50;15.40;;;;;;;10.98;70.44;102646.81;5010955;28;20030;-44
2022/11/13 03:39:51;;;;;;;22.83;14.70;;;;;;;11.02;70.17;102647.84;5010884;28;20455;-49
2022/11/13 03:42:16;;;;;;;21.52;13.88;;;;;;;11.05;70.06;102644.44;5010311;28;20030;-43
2022/11/13 03:44:41;;;;;;;24.40;14.90;;;;;;;11.04;70.03;102648.75;5010784;28;20471;-46
2022/11/13 03:47:07;;;;;;;23.38;14.70;;;;;;;11.09;69.98;102638.53;5010375;28;20041;-43
2022/11/13 03:49:32;;;;;;;23.70;14.48;;;;;;;11.05;70.00;102644.44;5011774;28;20026;-44
2022/11/13 03:51:57;;;;;;;23.08;14.70;;;;;;;11.03;69.89;102639.19;5012735;28;20102;-44
2022/11/13 03:54:23;;;;;;;25.17;15.27;;;;;;;10.89;69.92;102642.94;5012589;28;20084;-43
2022/11/13 03:56:48;;;;;;;25.10;14.93;;;;;;;10.99;69.86;102648.59;5012007;28;20049;-46
2022/11/13 03:59:13;;;;;;;21.30;13.52;;;;;;;11.02;69.67;102660.88;5010249;28;20111;-44
2022/11/13 04:01:38;;;;;;;21.02;14.25;;;;;;;10.97;69.76;102657.19;5010175;28;20022;-46
2022/11/13 04:04:04;;;;;;;21.15;13.98;;;;;;;10.83;69.72;102647.91;5009912;28;20014;-44
2022/11/13 04:06:29;;;;;;;25.45;15.00;;;;;;;10.95;69.59;102654.53;4992606;28;20542;-44
2022/11/13 04:08:54;;;;;;;23.60;14.02;;;;;;;10.90;69.96;102645.63;5010084;28;20025;-44
2022/11/13 04:11:20;;;;;;;23.55;13.82;;;;;;;10.99;69.38;102645.09;5010139;28;20030;-49
2022/11/13 04:13:45;;;;;;;20.27;13.65;;;;;;;11.00;69.07;102646.88;5010093;28;20036;-45
2022/11/13 04:16:10;;;;;;;22.33;14.23;;;;;;;10.83;69.62;102651.41;5010312;28;20462;-44
2022/11/13 04:18:35;;;;;;;21.67;13.65;;;;;;;10.94;69.34;102644.00;5009929;28;20022;-45
2022/11/13 04:21:03;;;;;;;22.75;14.25;;;;;;;10.86;68.91;102648.03;5009905;28;20072;-47
2022/11/13 04:23:29;;;;;;;21.73;13.80;;;;;;;10.89;69.08;102640.34;5009740;28;20041;-44
2022/11/13 04:25:54;;;;;;;19.15;13.18;;;;;;;10.88;69.23;102642.06;4992845;28;20030;-46
2022/11/13 04:28:20;;;;;;;22.35;14.43;;;;;;;10.81;69.42;102636.53;5010165;28;20029;-45
2022/11/13 04:30:45;;;;;;;24.35;14.48;;;;;;;10.88;69.03;102638.56;5010382;28;20033;-48
2022/11/13 04:33:11;;;;;;;22.35;13.25;;;;;;;10.89;68.79;102628.19;4992461;28;20018;-42
2022/11/13 04:35:36;;;;;;;21.77;13.35;;;;;;;10.82;69.09;102633.09;5010155;28;20037;-45
2022/11/13 04:38:01;;;;;;;20.85;13.63;;;;;;;10.81;69.48;102626.09;5010137;28;20109;-44
2022/11/13 04:40:27;;;;;;;21.08;13.63;;;;;;;10.76;69.70;102622.41;5009666;28;20104;-45
2022/11/13 04:42:52;;;;;;;21.30;13.43;;;;;;;10.83;69.52;102617.50;5010101;28;20467;-45
2022/11/13 04:45:20;;;;;;;21.65;13.02;;;;;;;10.85;68.98;102614.97;5009926;28;20113;-44
2022/11/13 04:47:46;;;;;;;20.60;13.57;;;;;;;10.66;69.71;102613.31;5010363;28;20088;-46
2022/11/13 04:50:13;;;;;;;22.67;13.93;;;;;;;10.75;69.95;102618.91;5010400;28;20145;-44
2022/11/13 04:52:39;;;;;;;20.83;13.70;;;;;;;10.69;69.53;102613.44;5009940;28;20496;-44
2022/11/13 04:55:05;;;;;;;21.48;13.98;;;;;;;10.74;69.85;102621.44;5010066;28;20266;-44
2022/11/13 04:57:30;;;;;;;20.45;13.23;;;;;;;10.71;69.70;102621.34;5010250;28;20065;-44
2022/11/13 04:59:56;;;;;;;21.40;13.27;;;;;;;10.83;69.37;102627.94;5013229;28;20045;-46
2022/11/13 05:02:21;;;;;;;20.02;13.20;;;;;;;10.91;68.75;102630.88;5013461;28;20498;-43
2022/11/13 05:04:46;;;;;;;21.73;13.57;;;;;;;10.80;69.21;102621.69;4996398;28;20022;-43
2022/11/13 05:07:12;;;;;;;20.40;12.95;;;;;;;10.74;69.20;102619.72;5015264;28;20022;-44
2022/11/13 05:09:37;;;;;;;20.63;13.43;;;;;;;10.77;68.97;102613.75;4998906;28;20451;-42
2022/11/13 05:12:06;;;;;;;20.88;12.95;;;;;;;10.74;68.84;102613.63;5017962;28;20026;-43
2022/11/13 05:14:32;;;;;;;19.63;13.73;;;;;;;10.73;69.09;102609.25;5017729;28;20103;-42
2022/11/13 05:16:58;;;;;;;19.35;13.38;;;;;;;10.68;69.13;102600.31;5016509;28;20437;-42
2022/11/13 05:19:23;;;;;;;20.83;13.32;;;;;;;10.68;68.87;102601.22;5016301;28;20026;-43
2022/11/13 05:21:48;;;;;;;22.13;13.57;;;;;;;10.65;68.97;102598.50;5014813;28;20026;-44
2022/11/13 05:24:14;;;;;;;23.30;13.77;;;;;;;10.48;69.71;102594.31;5013495;28;20026;-45
2022/11/13 05:26:39;;;;;;;20.67;13.23;;;;;;;10.63;68.90;102588.81;5013958;28;20054;-45
2022/11/13 05:29:05;;;;;;;20.65;13.45;;;;;;;10.71;68.83;102597.84;5013580;28;20048;-46
2022/11/13 05:31:30;;;;;;;23.48;14.00;;;;;;;10.74;68.31;102597.97;5012555;28;20478;-43
2022/11/13 05:33:55;;;;;;;22.25;13.20;;;;;;;10.76;67.76;102591.09;5013056;28;20030;-43
2022/11/13 05:36:22;;;;;;;19.50;13.00;;;;;;;10.72;67.74;102590.09;5013080;28;20121;-43
2022/11/13 05:38:47;;;;;;;21.85;13.48;;;;;;;10.65;67.96;102581.97;5012494;28;20445;-42
2022/11/13 05:41:18;;;;;;;21.48;13.00;;;;;;;10.62;67.70;102587.94;5012598;28;20025;-43
2022/11/13 05:43:44;;;;;;;20.02;13.70;;;;;;;10.46;67.97;102573.41;4994913;28;20022;-48
2022/11/13 05:46:11;;;;;;;21.02;13.05;;;;;;;10.46;67.73;102578.59;5012408;28;20026;-42
2022/11/13 05:48:37;;;;;;;21.60;13.30;;;;;;;10.38;67.92;102585.22;5012252;28;20045;-43
2022/11/13 05:51:14;;;;;;;19.92;13.15;;;;;;;10.38;68.05;102580.00;5012129;28;20021;-44
2022/11/13 05:53:40;;;;;;;20.88;12.88;;;;;;;10.37;68.29;102567.78;5012129;28;20437;-42
2022/11/13 05:56:14;;;;;;;19.15;12.45;;;;;;;10.37;67.77;102562.56;5012391;28;20024;-44
2022/11/13 05:58:41;;;;;;;20.83;13.55;;;;;;;10.29;68.17;102560.50;5012172;28;20029;-43
2022/11/13 06:01:19;;;;;;;18.88;12.43;;;;;;;10.29;68.03;102557.88;5011881;28;20030;-44
2022/11/13 06:03:45;;;;;;;19.90;13.25;;;;;;;10.22;68.19;102561.06;5012188;28;20033;-42
2022/11/13 06:06:13;;;;;;;20.75;13.15;;;;;;;10.15;68.10;102558.16;5012369;28;20034;-42
2022/11/13 06:08:39;;;;;;;18.52;13.00;;;;;;;10.14;68.08;102564.19;5012986;28;20022;-47
2022/11/13 06:11:10;;;;;;;22.30;13.57;;;;;;;10.07;68.22;102556.06;5011499;28;20128;-43
2022/11/13 06:13:35;;;;;;;19.90;13.20;;;;;;;9.98;68.46;102553.97;5012093;28;20030;-46
2022/11/13 06:16:04;;;;;;;19.70;12.90;;;;;;;10.00;68.38;102559.25;5012598;28;20034;-45
2022/11/13 06:18:29;;;;;;;21.35;13.60;;;;;;;9.92;67.95;102551.09;5011858;28;20605;-43
2022/11/13 06:20:54;;;;;;;19.20;12.43;;;;;;;9.86;68.07;102545.63;5012014;28;20105;-43
2022/11/13 06:23:20;;;;;;;21.35;13.48;;;;;;;9.86;68.34;102544.75;5011700;28;20025;-44
2022/11/13 06:25:45;;;;;;;22.38;14.02;;;;;;;9.85;68.51;102550.78;5012156;28;20018;-43
2022/11/13 06:28:10;;;;;;;22.60;14.15;;;;;;;9.75;68.75;102549.50;5011687;28;20120;-44
2022/11/13 06:30:36;;;;;;;23.80;14.32;;;;;;;9.76;68.95;102535.63;5011414;28;20022;-43
2022/11/13 06:33:01;;;;;;;21.23;13.05;;;;;;;9.80;68.94;102542.75;5011625;28;20108;-45
2022/11/13 06:35:26;;;;;;;21.27;13.52;;;;;;;9.79;68.65;102530.56;5012645;28;20033;-42
2022/11/13 06:37:54;;;;;;;20.58;13.15;;;;;;;9.83;68.52;102542.88;5013865;28;20100;-43
2022/11/13 06:40:19;;;;;;;20.98;13.40;;;;;;;9.80;68.78;102534.06;5012871;28;20029;-43
2022/11/13 06:42:44;;;;;;;22.73;13.38;;;;;;;9.76;69.11;102540.84;5013282;28;20033;-44
2022/11/13 06:45:10;;;;;;;21.35;13.68;;;;;;;9.82;68.75;102542.84;5012090;28;20141;-45
2022/11/13 06:47:35;;;;;;;21.95;13.77;;;;;;;9.87;68.69;102544.81;5011525;28;20026;-43
2022/11/13 06:50:00;;;;;;;24.73;13.82;;;;;;;9.94;68.98;102540.75;5011677;28;20057;-41
2022/11/13 06:52:26;;;;;;;21.17;13.90;;;;;;;9.97;68.91;102546.09;5011168;28;20395;-43
2022/11/13 06:54:51;;;;;;;22.77;13.98;;;;;;;9.92;69.98;102543.28;5011381;28;20375;-43
2022/11/13 06:57:16;;;;;;;22.20;13.77;;;;;;;10.04;69.58;102540.31;5011278;28;20032;-43
2022/11/13 06:59:42;;;;;;;22.25;13.85;;;;;;;10.09;69.19;102544.88;5011578;28;20095;-43
2022/11/13 07:02:09;;;;;;;23.17;14.45;;;;;;;10.07;69.84;102538.72;5010611;28;20105;-42
2022/11/13 07:04:35;;;;;;;22.15;14.30;;;;;;;10.11;69.37;102534.53;4993477;28;20038;-43
2022/11/13 07:07:00;;;;;;;22.25;13.65;;;;;;;10.13;69.54;102536.34;5010995;28;20033;-44
2022/11/13 07:09:26;;;;;;;23.23;13.82;;;;;;;10.15;69.09;102533.81;5011184;28;20017;-42
2022/11/13 07:11:51;;;;;;;20.55;13.57;;;;;;;10.22;69.18;102530.69;5011118;28;20022;-43
2022/11/13 07:14:16;;;;;;;20.80;13.70;;;;;;;10.22;69.10;102530.69;4993536;28;20033;-47
2022/11/13 07:16:41;;;;;;;21.27;13.65;;;;;;;10.27;68.90;102538.69;5012547;28;20018;-45
2022/11/13 07:19:07;;;;;;;20.70;14.15;;;;;;;10.35;68.64;102532.06;5013533;28;20025;-45
2022/11/13 07:21:32;;;;;;;23.17;14.85;;;;;;;10.43;69.02;102528.94;5012704;28;20079;-43
2022/11/13 07:23:57;;;;;;;22.67;14.65;;;;;;;10.40;68.87;102520.09;5013961;28;20038;-43
2022/11/13 07:26:23;;;;;;;20.92;14.05;;;;;;;10.55;68.49;102518.13;5013885;28;20021;-43
2022/11/13 07:28:48;;;;;;;20.65;13.48;;;;;;;10.64;68.70;102514.97;5011829;28;20434;-43
2022/11/13 07:31:15;;;;;;;21.33;13.63;;;;;;;10.68;68.24;102509.91;5010935;28;20021;-43
2022/11/13 07:33:41;;;;;;;21.60;13.93;;;;;;;10.77;68.22;102506.78;5013164;28;20405;-43
2022/11/13 07:36:07;;;;;;;20.98;13.45;;;;;;;10.77;67.67;102504.19;5013916;28;20097;-45
2022/11/13 07:38:32;;;;;;;20.63;12.85;;;;;;;10.76;67.55;102508.50;5012134;28;20038;-45
2022/11/13 07:40:58;;;;;;;18.60;12.55;;;;;;;10.88;66.46;102508.97;5010930;28;20021;-46
2022/11/13 07:43:23;;;;;;;18.42;12.05;;;;;;;11.11;66.04;102512.44;5010761;28;20088;-45
2022/11/13 07:45:53;;;;;;;18.17;11.85;;;;;;;11.14;65.94;102509.97;5010821;28;20068;-40
2022/11/13 07:48:19;;;;;;;18.85;12.27;;;;;;;11.37;65.54;102513.41;5011125;28;20034;-45
2022/11/13 07:50:45;;;;;;;17.20;11.95;;;;;;;11.53;65.21;102513.09;5010769;28;20080;-43
2022/11/13 07:53:10;;;;;;;17.77;11.63;;;;;;;11.61;64.90;102513.38;5011310;28;20021;-42
2022/11/13 07:55:36;;;;;;;17.83;11.75;;;;;;;11.82;63.96;102514.19;5011997;28;20070;-43
2022/11/13 07:58:02;;;;;;;18.80;11.75;;;;;;;11.85;63.53;102516.88;5012032;28;20038;-43
2022/11/13 08:00:29;;;;;;;18.40;11.82;;;;;;;11.94;62.89;102508.47;5011822;28;20057;-43
2022/11/13 08:02:55;;;;;;;18.92;11.43;;;;;;;12.12;62.18;102507.38;5011939;28;20088;-45
2022/11/13 08:05:21;;;;;;;17.60;11.43;;;;;;;12.19;62.26;102511.06;5012063;28;20030;-45
2022/11/13 08:07:48;;;;;;;17.58;11.10;;;;;;;12.34;62.02;102515.91;5012472;28;20025;-46
2022/11/13 08:10:14;;;;;;;18.15;11.27;;;;;;;12.36;61.46;102512.50;5012411;28;20022;-42
2022/11/13 08:12:39;;;;;;;16.50;10.75;;;;;;;12.41;61.33;102510.91;5012675;28;20497;-43
2022/11/13 08:15:05;;;;;;;16.05;11.05;;;;;;;12.55;60.96;102513.97;5013411;28;20021;-42
2022/11/13 08:17:30;;;;;;;16.40;10.63;;;;;;;12.40;60.54;102505.63;5011985;28;20033;-42
2022/11/13 08:19:55;;;;;;;17.02;10.77;;;;;;;12.54;60.16;102509.59;5011214;28;20033;-46
2022/11/13 08:22:21;;;;;;;17.52;11.40;;;;;;;12.62;58.82;102512.44;5009907;28;20474;-41
2022/11/13 08:24:46;;;;;;;18.52;11.13;;;;;;;12.57;58.99;102507.94;5010727;28;20065;-45
2022/11/13 08:27:11;;;;;;;17.60;11.02;;;;;;;12.67;58.45;102505.63;5011732;28;20078;-43
2022/11/13 08:29:37;;;;;;;16.58;10.80;;;;;;;12.75;58.08;102505.00;5011984;28;20486;-43
2022/11/13 08:32:03;;;;;;;18.50;11.30;;;;;;;12.99;57.47;102500.47;5012293;28;20022;-43
2022/11/13 08:34:28;;;;;;;20.33;11.07;;;;;;;12.97;56.57;102503.94;5016346;28;20037;-43
2022/11/13 08:36:54;;;;;;;18.40;10.95;;;;;;;13.11;56.35;102494.75;5016328;28;20125;-43
2022/11/13 08:39:19;;;;;;;18.88;11.38;;;;;;;13.35;56.45;102490.25;5015474;28;20025;-45
2022/11/13 08:41:44;;;;;;;18.80;11.30;;;;;;;13.22;56.36;102490.72;5014944;28;20030;-43
2022/11/13 08:44:11;;;;;;;16.77;11.13;;;;;;;13.26;56.22;102499.56;5014604;28;20113;-43
2022/11/13 08:46:37;;;;;;;19.27;11.30;;;;;;;13.30;55.13;102491.81;5014044;28;20030;-43
2022/11/13 08:49:02;;;;;;;18.10;11.48;;;;;;;13.28;55.27;102493.53;5015353;28;20041;-42
2022/11/13 08:51:28;;;;;;;21.15;11.52;;;;;;;13.28;54.98;102492.63;5014384;28;20108;-44
2022/11/13 08:53:53;;;;;;;16.88;11.13;;;;;;;13.57;54.98;102483.84;5015110;28;20025;-46
2022/11/13 08:56:18;;;;;;;18.10;11.38;;;;;;;13.33;55.68;102483.16;5014551;28;20112;-43
2022/11/13 08:58:44;;;;;;;21.45;11.38;;;;;;;13.47;55.49;102476.59;5014695;28;20030;-45
2022/11/13 09:01:09;;;;;;;18.35;12.00;;;;;;;13.16;55.53;102467.00;5013660;28;20050;-42
2022/11/13 09:03:35;;;;;;;21.38;11.65;;;;;;;13.01;55.73;102471.75;4996214;28;20034;-44
2022/11/13 09:06:05;;;;;;;16.90;11.30;;;;;;;13.45;55.45;102465.16;5013995;28;20025;-45
2022/11/13 09:08:30;;;;;;;19.73;11.55;;;;;;;13.60;55.70;102467.31;5014028;28;20198;-46
2022/11/13 09:10:56;;;;;;;16.52;11.45;;;;;;;13.56;55.55;102458.47;5013248;28;20324;-43
2022/11/13 09:13:21;;;;;;;17.10;10.77;;;;;;;13.44;56.06;102460.75;5013199;28;20075;-42
2022/11/13 09:15:47;;;;;;;18.00;11.43;;;;;;;13.53;55.38;102457.50;5012927;28;20383;-46
2022/11/13 09:18:13;;;;;;;17.25;10.80;;;;;;;13.39;55.96;102462.38;5013305;28;20041;-46
2022/11/13 09:20:38;;;;;;;16.17;10.73;;;;;;;13.54;55.41;102454.91;5012844;28;20103;-42
2022/11/13 09:23:06;;;;;;;18.10;11.20;;;;;;;13.07;56.25;102450.97;5013269;28;20034;-43
2022/11/13 09:25:34;;;;;;;16.35;10.65;;;;;;;13.25;56.39;102456.75;5013884;28;20033;-43
2022/11/13 09:28:00;;;;;;;21.42;11.10;;;;;;;13.13;56.59;102458.13;5012945;28;20049;-44
2022/11/13 09:30:27;;;;;;;16.48;10.80;;;;;;;13.24;56.59;102456.69;5012308;28;20172;-45
2022/11/13 09:32:57;;;;;;;18.13;10.77;;;;;;;13.38;56.37;102448.38;5013145;28;20051;-42
2022/11/13 09:35:34;;;;;;;18.27;10.88;;;;;;;13.08;56.95;102437.03;5013117;28;20128;-41
2022/11/13 09:38:07;;;;;;;17.27;10.98;;;;;;;13.20;57.14;102436.53;5013708;28;20486;-43
2022/11/13 09:40:35;;;;;;;19.67;10.43;;;;;;;13.43;56.17;102434.50;5012660;28;20394;-44
2022/11/13 09:43:03;;;;;;;17.48;10.57;;;;;;;13.56;56.52;102440.13;5012685;28;20026;-41
2022/11/13 09:45:30;;;;;;;18.08;10.88;;;;;;;13.32;57.07;102440.38;5012125;28;20503;-45
2022/11/13 09:48:11;;;;;;;17.25;11.00;;;;;;;13.29;56.77;102436.78;5013294;28;20053;-41
2022/11/13 09:50:39;;;;;;;16.65;11.05;;;;;;;13.36;56.57;102436.97;5013239;28;20085;-43
2022/11/13 09:53:04;;;;;;;16.40;10.77;;;;;;;13.64;56.01;102435.09;5012566;28;20045;-41
2022/11/13 09:55:37;;;;;;;15.77;10.80;;;;;;;13.75;55.75;102436.25;5013423;28;20033;-42
2022/11/13 09:58:12;;;;;;;16.60;10.93;;;;;;;13.83;55.84;102439.94;5012514;28;20132;-41
2022/11/13 10:00:38;;;;;;;15.18;9.95;;;;;;;13.96;55.86;102434.16;5014636;28;20061;-39
2022/11/13 10:03:23;;;;;;;19.08;10.68;;;;;;;13.93;56.16;102435.81;5013257;28;20065;-41
2022/11/13 10:05:55;;;;;;;16.05;10.07;;;;;;;13.75;56.54;102438.88;5012867;28;20030;-42
2022/11/13 10:08:48;;;;;;;14.88;10.50;;;;;;;13.80;56.98;102435.50;5012739;28;20076;-43
2022/11/13 10:11:34;;;;;;;17.42;10.65;;;;;;;13.70;56.91;102438.75;4981174;28;20682;-45
2022/11/13 10:14:06;;;;;;;16.27;10.13;;;;;;;13.68;56.71;102437.81;5012580;28;20490;-45
2022/11/13 10:16:36;;;;;;;15.20;10.32;;;;;;;13.64;56.91;102435.97;5012688;28;20056;-44
2022/11/13 10:19:26;;;;;;;14.55;10.15;;;;;;;13.99;56.74;102431.59;5012106;28;20022;-42
2022/11/13 10:22:00;;;;;;;16.48;10.02;;;;;;;14.10;55.82;102437.09;5012186;28;20045;-42
2022/11/13 10:24:37;;;;;;;18.67;10.05;;;;;;;14.26;55.51;102428.75;5012023;28;20074;-43
2022/11/13 10:27:08;;;;;;;15.60;10.40;;;;;;;14.03;56.48;102427.31;5012099;28;20038;-46
2022/11/13 10:29:34;;;;;;;16.17;10.50;;;;;;;14.40;55.12;102415.97;5012001;28;20030;-43
2022/11/13 10:32:22;;;;;;;15.27;9.90;;;;;;;14.54;54.98;102425.03;5011747;28;20489;-43
2022/11/13 10:35:05;;;;;;;18.25;10.27;;;;;;;14.22;55.72;102414.66;5011937;28;20486;-45
2022/11/13 10:37:43;;;;;;;14.90;10.35;;;;;;;14.36;54.70;102409.75;5012216;28;20101;-44
2022/11/13 10:40:09;;;;;;;14.32;9.85;;;;;;;14.67;54.43;102413.06;5012315;28;20029;-45
2022/11/13 10:42:40;;;;;;;14.45;9.60;;;;;;;14.75;54.69;102401.88;5011696;28;20033;-42
2022/11/13 10:45:15;;;;;;;14.27;10.00;;;;;;;14.85;54.47;102398.56;5012306;28;20065;-41
2022/11/13 10:47:49;;;;;;;16.40;10.65;;;;;;;14.62;54.42;102399.84;5013197;28;20393;-44
2022/11/13 10:50:27;;;;;;;15.68;10.32;;;;;;;14.85;53.82;102398.56;4995025;28;20486;-43
2022/11/13 10:52:55;;;;;;;16.48;10.55;;;;;;;14.65;53.45;102392.00;5012840;28;20025;-43
2022/11/13 10:55:28;;;;;;;14.27;9.93;;;;;;;14.90;53.07;102393.41;5012165;28;20026;-44
2022/11/13 10:57:59;;;;;;;16.48;11.15;;;;;;;14.93;53.29;102385.59;5012482;28;20034;-44
2022/11/13 11:00:34;;;;;;;17.52;10.52;;;;;;;14.54;53.40;102380.41;5013003;28;20053;-43
2022/11/13 11:02:59;;;;;;;15.75;10.70;;;;;;;14.73;53.24;102373.81;5013560;28;20065;-42
2022/11/13 11:05:26;;;;;;;15.23;10.43;;;;;;;14.89;53.43;102370.63;5013659;28;20477;-44
2022/11/13 11:07:56;;;;;;;16.73;10.65;;;;;;;15.05;52.31;102356.94;5013795;28;20025;-44
2022/11/13 11:12:14;;;;;;;18.25;10.82;;;;;;;15.48;51.77;102358.59;5012547;28;20029;-41